This demonstration page uses our WeatherBlox Daily Observations layout. Learn more.

Left ArrowRight Arrow

36.17497, -115.13722

Hourly Observations for December 25, 2020

Temp ( °F °C ) Dew Point ( °F °C ) Humidity (%) Winds ( mph kmh ) Pressure ( in mb ) Visibility ( mi km ) Precip ( " mm )
12:53 am 00:53 Clear 39 3.9 12 -11.1 33 33 Calm 30.29 1026 10 16.0934 0 0
1:53 am 01:53 Clear 38 3.3 11 -11.7 33 33 NW 6 9 30.3 1026 10 16.0934 0 0
2:53 am 02:53 Clear 37 2.8 7 -13.9 28 28 NW 7 11 30.29 1026 10 16.0934 0 0
3:53 am 03:53 Clear 36 2.2 5 -15 27 27 WNW 6 9 30.28 1026 10 16.0934 0 0
4:53 am 04:53 Cloudy 37 2.8 8 -13.3 30 30 Calm 30.29 1026 10 16.0934 0 0
5:53 am 05:53 Mostly Clear 38 3.3 6 -14.4 26 26 W 6 9 30.3 1026 10 16.0934 0 0
6:53 am 06:53 Sunny 38 3.3 5 -15 25 25 WNW 7 11 30.3 1026 10 16.0934 0 0
7:53 am 07:53 Sunny 39 3.9 5 -15 24 24 NNW 5 7 30.31 1026 10 16.0934 0 0
8:53 am 08:53 Sunny 46 7.8 3 -16.1 17 17 NNW 3 6 30.33 1027 10 16.0934 0 0
9:53 am 09:53 Sunny 50 10 3 -16.1 14 14 Calm 30.31 1026 10 16.0934 0 0
10:53 am 10:53 Sunny 53 11.7 4 -15.6 13 13 Calm 30.28 1026 10 16.0934 0 0
11:53 am 11:53 Sunny 55 12.8 1 -17.2 11 11 VRB 3 6 30.26 1025 10 16.0934 0 0
12:53 pm 12:53 Sunny 56 13.3 1 -17.2 10 10 VRB 5 7 30.22 1023 10 16.0934 0 0
1:53 pm 13:53 Sunny 58 14.4 0 -17.8 9 9 ENE 3 6 30.22 1023 10 16.0934 0 0
2:53 pm 14:53 Sunny 57 13.9 0 -17.8 10 10 SE 3 6 30.19 1022 10 16.0934 0 0
3:53 pm 15:53 Sunny 58 14.4 1 -17.2 10 10 SSE 7 11 30.17 1022 10 16.0934 0 0
4:53 pm 16:53 Clear 56 13.3 2 -16.7 11 11 Calm 30.18 1022 10 16.0934 0 0
5:53 pm 17:53 Clear 52 11.1 6 -14.4 15 15 Calm 30.19 1022 10 16.0934 0 0
6:53 pm 18:53 Clear 47 8.3 8 -13.3 20 20 NW 5 7 30.21 1023 10 16.0934 0 0
7:53 pm 19:53 Clear 47 8.3 6 -14.4 19 19 NNW 7 11 30.22 1023 10 16.0934 0 0
8:53 pm 20:53 Clear 44 6.7 8 -13.3 23 23 WNW 3 6 30.2 1023 10 16.0934 0 0
9:53 pm 21:53 Clear 41 5 9 -12.8 27 27 NW 3 6 30.2 1023 10 16.0934 0 0
10:53 pm 22:53 Clear 39 3.9 9 -12.8 29 29 NNW 7 11 30.19 1023 10 16.0934 0 0
11:53 pm 23:53 Clear 39 3.9 5 -15 24 24 NW 8 13 30.18 1022 10 16.0934 0 0

Powered by AerisWeather